Weather

Clear
Monday 09/24 0%
Clear
Sunny, along with a few afternoon clouds. High 86F. Winds WSW at 5 to 10 mph.
Partly Cloudy
Tuesday 09/25 20%
Partly Cloudy
Sunshine and clouds mixed. A stray shower or thunderstorm is possible. High 82F. Winds NW at 5 to 10 mph.
Partly Cloudy
Wednesday 09/26 20%
Partly Cloudy
Intervals of clouds and sunshine. A stray shower or thunderstorm is possible. High 74F. Winds SE at 10 to 15 mph.
Clear
Thursday 09/27 10%
Clear
Sunny. High 83F. Winds WSW at 5 to 10 mph.
Clear
Friday 09/28 0%
Clear
Sunny skies. High around 85F. Winds SSW at 5 to 10 mph.

 

 

For a detailed forecast click the banner below.

ballooncastlogo

 

 

Available data for KABQ from the past 2 hours
ALBUQUERQUE, NM
Metar
KABQ 240752Z 12006KT 10SM CLR 16/01 A3007 RMK AO2 SLP111 T01560006 $

07:52 UTC

Wind: 120° 6kt

Visibility: 10 SM

Sky:

Temp: 16 deg C / 60.8 deg F

Dewpoint: 1 deg C / 33.8 deg F

Pressure: 30.07 inHg

TAF
KABQ 240521Z 2406/2506 16007KT P6SM SKC FM240900 VRB06KT P6SM FEW120 FM242100 28008KT P6SM FEW110 FM250100 33006KT P6SM SCT100